Du har inga inställningar för hoppväder.nu

Hoppväder.nu

Senast uppdaterat 10:41

UTC-tid

2021-06-16 kl. 08:41


Sol och måne

Solen går upp 3:59 och går ner 22:49 (beräknade cirkatider)
Nästa fullmåne blir om 8 dagar (2021-06-24)

METAR

ESMQ (Kalmar)
(21 minuter sedan)
ESMQ 160820Z 25009KT 9999 FEW037 18/09 Q1019=



ESMX (Växjö)
(21 minuter sedan)
ESMX 160820Z 23009KT 200V260 9999 BKN031 17/09 Q1019=



ESMK (Ronneby)
(21 minuter sedan)
ESMK 160820Z 23007KT 9999 SCT040 18/09 Q1020=



ESSV (Visby)
(21 minuter sedan)
ESSV 160820Z 25011KT CAVOK 15/10 Q1019=






TAF

ESMQ (Kalmar)
(11 minuter sedan)
ESMQ 160830Z 1609/1618 24005KT CAVOK BECMG 1609/1611 18012KT=



ESMX (Växjö)
(11 minuter sedan)
ESMX 160830Z 1609/1614 23010KT CAVOK=



ESMK (Ronneby)
(38 minuter sedan)
ESMK 160803Z 1609/1618 22007KT CAVOK=



ESSV (Visby)
(11 minuter sedan)
ESSV 160830Z 1609/1618 24012KT CAVOK=





Kodnycklar till TAF och METAR






LHP

(Borglanda är område se22a i Delområde 2)

Översikt

ÖVERSIKT FÖR OMRÅDE se2 UTFÄRDAD 160742

GÄLLANDE DEN 16 JUNI 2021 MELLAN 08 OCH 16 UTC


Väderöversikt

En högtrycksrygg täcker södra Sverige.

Sikt under 5 kilometer eller molnbas under 1000 fot
Väntas inte förekomma under perioden.

Måttlig eller svår isbildning
Väntas inte förekomma under perioden

Måttlig eller svår turbulens
Väntas inte förekomma under perioden

Delområde 2

PROGNOS FÖR OMRÅDE se22 UTFÄRDAD 160742
GÄLLANDE DEN 16 JUNI 2021 MELLAN 08 OCH 16 UTC

Måttlig eller svår turbulens
08-16UTC: I hela området: Väntas inte förekomma under perioden

Måttlig eller svår isbildning
08-16UTC: I hela området: Väntas inte förekomma under perioden

Sikt/Väder/Moln
08-16UTC: I hela området: Sikt >8km. Molnbas >2000ft.

Molnöversida
08-16UTC: I hela området: Ingen prognos

CB/TCU Moln
08-16UTC: I hela området: Väntas inte förekomma under perioden

Nollgradersisoterm
08-16UTC: Noll grader FL100 - > FL125.

Vind vid marken
08-10UTC: Område se22c: SV/4-10 knop, byar upp till 20 knop.
Område se22g: SV-V/4-8 knop, byar upp till 17 knop.
Område se22f: V/5-6 knop, byar upp till 17 knop.
Område se22j: SV-V/4-7 knop, byar upp till 19 knop.
Område se22a: SV/1-12 knop, byar upp till 17 knop.
Område se22d: SV-V/2-9 knop, byar upp till 13 knop.
Område se22l: S/2-7 knop.
Område se22b: SV/4-13 knop, byar upp till 20 knop.
Område se22i: SV-V/3-6 knop, byar upp till 17 knop.
Område se22k: S/3-13 knop, byar upp till 21 knop.
Område se22h: SV-V/4-8 knop, byar upp till 18 knop.

08-12UTC: Område se22e: SV-V/4-7 knop, byar upp till 18 knop.

10-12UTC: Område se22j: SV/4-6 knop, byar upp till 20 knop.
Område se22h: SV-V/4-7 knop, byar upp till 17 knop.
Område se22c: S-SV/3-17 knop, byar upp till 26 knop.
Område se22d: SV/5-12 knop.
Område se22f: SV-V/4-6 knop, byar upp till 17 knop.
Område se22l: S/4-9 knop.
Område se22a: S-SV/2-16 knop, byar upp till 22 knop.
Område se22i: SV/3-6 knop, byar upp till 19 knop.
Område se22k: S-SV/4-14 knop, byar upp till 23 knop.
Område se22b: S-SV/3-20 knop, byar upp till 27 knop.

10-14UTC: Område se22g: SV-V/3-7 knop, byar upp till 16 knop.

12-14UTC: Område se22e: SV-V/4-6 knop, byar upp till 16 knop.
Område se22f: SV-V/4-5 knop, byar upp till 16 knop.
Område se22b: S-SV/1-22 knop, byar upp till 29 knop.
Område se22i: S-SV/3-9 knop, byar upp till 21 knop.
Område se22d: S-SV/6-14 knop, byar upp till 18 knop.
Område se22h: SV-V/3-6 knop, byar upp till 18 knop.
Område se22l: S/2-8 knop.
Område se22a: S-SV/0-17 knop, byar upp till 25 knop.
Område se22k: S-SV/5-16 knop, byar upp till 25 knop.
Område se22c: S-SV/4-20 knop, byar upp till 28 knop.

12-16UTC: Område se22j: S-SV/5-7 knop, byar upp till 18 knop.

14-16UTC: Område se22a: S-SV/1-17 knop, byar upp till 24 knop.
Område se22e: SV-V/3-6 knop, byar upp till 16 knop.
Område se22k: S-SV/4-16 knop, byar upp till 25 knop.
Område se22d: S-SV/5-15 knop, byar upp till 18 knop.
Område se22f: SV-V/3-5 knop, byar upp till 15 knop.
Område se22b: S-SV/1-22 knop, byar upp till 28 knop.
Område se22h: SV/2-8 knop, byar upp till 20 knop.
Område se22i: S/2-9 knop, byar upp till 21 knop.
Område se22g: SV-V/2-6 knop, byar upp till 15 knop.
Område se22c: S-SV/6-20 knop, byar upp till 26 knop.
Område se22l: S/1-9 knop.


Genomsnittlig vind och temperatur för området
2000ft:
08-10UTC: 250/11kt +10.
10-12UTC: 250/10kt +12.
12-14UTC: 250/8kt +13.
14-16UTC: 230/7kt +14.

FL50:
08-10UTC: 280/12kt +8.
10-12UTC: 280/10kt +9.
12-14UTC: 280/7kt +9.
14-16UTC: 250/5kt +9.

FL100:
08-10UTC: 280/13kt +3.
10-12UTC: 280/12kt +3.
12-14UTC: 280/11kt +3.
14-16UTC: 270/10kt +4.

Lägsta QNH
1016 hPa.

OBS! endast utbredd måttlig eller svår isbildning och turbulens prognostiseras i LLF.
Avsaknad av isbildning och turbulens i prognosen utesluter inte förekomst av lätt isbildning och turbulens.
För indikation på lätt isbildning, var vänlig kontrollera om prognosen för molntopp ligger högre än nollgradersisotermen.
Förekomst av TCU eller CB medför alltid en risk för måttlig eller svår isbildning och turbulens även om det inte framgår explicit av prognosen.







Spotting

Hur fungerar spotthjälpen och Vindkartan?

Markvind är ca 1-6 m/s med byar på 9 m/s.
Vind på 600 m ca 6 m/s.
Vind på 1500 m ca 6 m/s.
Vind på 3000 m ca 7 m/s.
Filip Helge flyger ca 34 m/s över marken på finalen.
Du driver ca 301 m bakåt i frifall. (401 m)
Lämplig spot är 1 sekunder eller 34 m efter gropen.
(3 s eller 103 m)
För små grupper eller ensamhoppare bör man vänta 4-6 sekunder mellan grupperna.
För större grupper bör man vänta 9-11 sekunder mellan grupperna.


Vindkartan

Senast uppdaterad 10:41




All data kommer från LFV.se